sensor_id;sensor_type;location;lat;lon;timestamp;P1;durP1;ratioP1;P2;durP2;ratioP2
57697;SDS011;43531;52.152;6.366;2023-02-22T00:00:17;33.15;;;18.42;;
57697;SDS011;43531;52.152;6.366;2023-02-22T00:00:53;39.40;;;18.65;;
57697;SDS011;43531;52.152;6.366;2023-02-22T00:01:26;37.42;;;20.25;;
57697;SDS011;43531;52.152;6.366;2023-02-22T00:02:13;35.17;;;19.77;;
57697;SDS011;43531;52.152;6.366;2023-02-22T00:02:57;32.40;;;19.63;;
57697;SDS011;43531;52.152;6.366;2023-02-22T00:03:30;34.33;;;19.52;;
57697;SDS011;43531;52.152;6.366;2023-02-22T00:04:05;38.05;;;19.27;;
57697;SDS011;43531;52.152;6.366;2023-02-22T00:04:37;39.05;;;19.70;;
57697;SDS011;43531;52.152;6.366;2023-02-22T00:05:10;36.08;;;19.75;;
57697;SDS011;43531;52.152;6.366;2023-02-22T00:05:42;38.90;;;22.02;;
57697;SDS011;43531;52.152;6.366;2023-02-22T00:06:17;40.17;;;20.65;;
57697;SDS011;43531;52.152;6.366;2023-02-22T00:06:51;41.45;;;20.13;;
57697;SDS011;43531;52.152;6.366;2023-02-22T00:07:22;36.00;;;18.73;;
57697;SDS011;43531;52.152;6.366;2023-02-22T00:07:54;34.70;;;19.48;;
57697;SDS011;43531;52.152;6.366;2023-02-22T00:08:29;35.05;;;19.52;;
57697;SDS011;43531;52.152;6.366;2023-02-22T00:09:05;35.70;;;21.17;;
57697;SDS011;43531;52.152;6.366;2023-02-22T00:09:39;39.03;;;21.88;;
57697;SDS011;43531;52.152;6.366;2023-02-22T00:10:11;39.78;;;20.10;;
57697;SDS011;43531;52.152;6.366;2023-02-22T00:10:44;43.10;;;22.08;;
57697;SDS011;43531;52.152;6.366;2023-02-22T00:11:15;42.40;;;21.05;;
57697;SDS011;43531;52.152;6.366;2023-02-22T00:11:47;39.38;;;20.42;;
57697;SDS011;43531;52.152;6.366;2023-02-22T00:12:19;36.35;;;20.67;;
57697;SDS011;43531;52.152;6.366;2023-02-22T00:12:51;37.90;;;22.52;;
57697;SDS011;43531;52.152;6.366;2023-02-22T00:13:24;33.13;;;20.67;;
57697;SDS011;43531;52.152;6.366;2023-02-22T00:13:59;39.40;;;21.48;;
57697;SDS011;43531;52.152;6.366;2023-02-22T00:14:32;37.67;;;20.63;;
57697;SDS011;43531;52.152;6.366;2023-02-22T00:15:04;43.17;;;21.17;;
57697;SDS011;43531;52.152;6.366;2023-02-22T00:15:35;35.15;;;20.75;;
57697;SDS011;43531;52.152;6.366;2023-02-22T00:16:07;42.72;;;22.33;;
57697;SDS011;43531;52.152;6.366;2023-02-22T00:16:39;39.00;;;21.02;;
57697;SDS011;43531;52.152;6.366;2023-02-22T00:17:10;38.42;;;21.35;;
57697;SDS011;43531;52.152;6.366;2023-02-22T00:17:43;35.65;;;19.88;;
57697;SDS011;43531;52.152;6.366;2023-02-22T00:18:16;42.67;;;20.80;;
57697;SDS011;43531;52.152;6.366;2023-02-22T00:18:49;38.00;;;20.95;;
57697;SDS011;43531;52.152;6.366;2023-02-22T00:19:21;37.83;;;21.83;;
57697;SDS011;43531;52.152;6.366;2023-02-22T00:19:53;38.85;;;20.90;;
57697;SDS011;43531;52.152;6.366;2023-02-22T00:20:25;36.72;;;19.35;;
57697;SDS011;43531;52.152;6.366;2023-02-22T00:20:58;39.50;;;20.98;;
57697;SDS011;43531;52.152;6.366;2023-02-22T00:21:31;38.17;;;21.20;;
57697;SDS011;43531;52.152;6.366;2023-02-22T00:22:02;38.13;;;21.02;;
57697;SDS011;43531;52.152;6.366;2023-02-22T00:22:34;40.83;;;22.95;;
57697;SDS011;43531;52.152;6.366;2023-02-22T00:23:07;37.15;;;20.60;;
57697;SDS011;43531;52.152;6.366;2023-02-22T00:23:43;40.42;;;21.02;;
57697;SDS011;43531;52.152;6.366;2023-02-22T00:24:17;43.17;;;22.80;;
57697;SDS011;43531;52.152;6.366;2023-02-22T00:24:59;38.03;;;20.73;;
57697;SDS011;43531;52.152;6.366;2023-02-22T00:25:31;40.35;;;21.67;;
57697;SDS011;43531;52.152;6.366;2023-02-22T00:26:04;37.70;;;21.77;;
57697;SDS011;43531;52.152;6.366;2023-02-22T00:26:40;40.75;;;21.33;;
57697;SDS011;43531;52.152;6.366;2023-02-22T00:27:12;41.63;;;21.10;;
57697;SDS011;43531;52.152;6.366;2023-02-22T00:27:46;39.53;;;22.63;;
57697;SDS011;43531;52.152;6.366;2023-02-22T00:28:18;39.70;;;22.55;;
57697;SDS011;43531;52.152;6.366;2023-02-22T00:28:51;34.55;;;21.20;;
57697;SDS011;43531;52.152;6.366;2023-02-22T00:29:24;40.28;;;20.08;;
57697;SDS011;43531;52.152;6.366;2023-02-22T00:29:55;47.25;;;23.27;;
57697;SDS011;43531;52.152;6.366;2023-02-22T00:30:28;43.97;;;20.48;;
57697;SDS011;43531;52.152;6.366;2023-02-22T00:31:03;38.42;;;21.63;;
57697;SDS011;43531;52.152;6.366;2023-02-22T00:31:37;40.22;;;21.95;;
57697;SDS011;43531;52.152;6.366;2023-02-22T00:32:09;41.95;;;21.95;;
57697;SDS011;43531;52.152;6.366;2023-02-22T00:32:46;42.08;;;21.55;;
57697;SDS011;43531;52.152;6.366;2023-02-22T00:33:18;43.75;;;23.02;;
57697;SDS011;43531;52.152;6.366;2023-02-22T00:33:50;43.15;;;21.38;;
57697;SDS011;43531;52.152;6.366;2023-02-22T00:34:22;38.58;;;19.65;;
57697;SDS011;43531;52.152;6.366;2023-02-22T00:34:54;42.72;;;21.55;;
57697;SDS011;43531;52.152;6.366;2023-02-22T00:35:28;40.17;;;21.40;;
57697;SDS011;43531;52.152;6.366;2023-02-22T00:36:01;42.30;;;21.05;;
57697;SDS011;43531;52.152;6.366;2023-02-22T00:36:33;33.85;;;20.30;;
57697;SDS011;43531;52.152;6.366;2023-02-22T00:37:04;42.05;;;23.08;;
57697;SDS011;43531;52.152;6.366;2023-02-22T00:37:36;35.67;;;20.33;;
57697;SDS011;43531;52.152;6.366;2023-02-22T00:38:12;44.47;;;22.33;;
57697;SDS011;43531;52.152;6.366;2023-02-22T00:38:46;42.92;;;23.10;;
57697;SDS011;43531;52.152;6.366;2023-02-22T00:39:18;41.67;;;22.15;;
57697;SDS011;43531;52.152;6.366;2023-02-22T00:39:50;44.33;;;22.50;;
57697;SDS011;43531;52.152;6.366;2023-02-22T00:40:23;44.67;;;23.05;;
57697;SDS011;43531;52.152;6.366;2023-02-22T00:41:00;47.80;;;24.30;;
57697;SDS011;43531;52.152;6.366;2023-02-22T00:41:32;47.08;;;24.05;;
57697;SDS011;43531;52.152;6.366;2023-02-22T00:42:04;39.92;;;21.50;;
57697;SDS011;43531;52.152;6.366;2023-02-22T00:42:36;39.22;;;21.58;;
57697;SDS011;43531;52.152;6.366;2023-02-22T00:43:07;44.28;;;23.25;;
57697;SDS011;43531;52.152;6.366;2023-02-22T00:43:39;41.58;;;21.92;;
57697;SDS011;43531;52.152;6.366;2023-02-22T00:44:11;41.67;;;22.88;;
57697;SDS011;43531;52.152;6.366;2023-02-22T00:44:43;47.30;;;23.13;;
57697;SDS011;43531;52.152;6.366;2023-02-22T00:45:16;51.38;;;23.23;;
57697;SDS011;43531;52.152;6.366;2023-02-22T00:45:49;41.10;;;21.42;;
57697;SDS011;43531;52.152;6.366;2023-02-22T00:46:21;43.15;;;22.60;;
57697;SDS011;43531;52.152;6.366;2023-02-22T00:46:53;46.92;;;22.35;;
57697;SDS011;43531;52.152;6.366;2023-02-22T00:47:25;38.30;;;21.95;;
57697;SDS011;43531;52.152;6.366;2023-02-22T00:47:57;43.35;;;23.92;;
57697;SDS011;43531;52.152;6.366;2023-02-22T00:48:29;49.67;;;24.25;;
57697;SDS011;43531;52.152;6.366;2023-02-22T00:49:01;41.08;;;24.63;;
57697;SDS011;43531;52.152;6.366;2023-02-22T00:49:34;48.90;;;27.25;;
57697;SDS011;43531;52.152;6.366;2023-02-22T00:50:05;43.40;;;24.60;;
57697;SDS011;43531;52.152;6.366;2023-02-22T00:50:37;43.30;;;23.55;;
57697;SDS011;43531;52.152;6.366;2023-02-22T00:51:09;44.22;;;23.30;;
57697;SDS011;43531;52.152;6.366;2023-02-22T00:51:41;40.50;;;23.50;;
57697;SDS011;43531;52.152;6.366;2023-02-22T00:52:13;45.25;;;25.98;;
57697;SDS011;43531;52.152;6.366;2023-02-22T00:52:44;43.95;;;25.05;;
57697;SDS011;43531;52.152;6.366;2023-02-22T00:53:16;46.70;;;26.55;;
57697;SDS011;43531;52.152;6.366;2023-02-22T00:53:48;38.83;;;22.92;;
57697;SDS011;43531;52.152;6.366;2023-02-22T00:54:19;49.97;;;25.17;;
57697;SDS011;43531;52.152;6.366;2023-02-22T00:54:51;42.15;;;24.83;;
57697;SDS011;43531;52.152;6.366;2023-02-22T00:55:33;42.25;;;24.17;;
57697;SDS011;43531;52.152;6.366;2023-02-22T00:56:06;44.55;;;22.75;;
57697;SDS011;43531;52.152;6.366;2023-02-22T00:56:38;42.22;;;23.60;;
57697;SDS011;43531;52.152;6.366;2023-02-22T00:57:09;43.58;;;23.70;;
57697;SDS011;43531;52.152;6.366;2023-02-22T00:57:41;43.95;;;23.65;;
57697;SDS011;43531;52.152;6.366;2023-02-22T00:58:13;41.90;;;23.75;;
57697;SDS011;43531;52.152;6.366;2023-02-22T00:58:44;42.42;;;25.75;;
57697;SDS011;43531;52.152;6.366;2023-02-22T00:59:16;45.15;;;23.13;;
57697;SDS011;43531;52.152;6.366;2023-02-22T00:59:48;47.15;;;24.65;;
57697;SDS011;43531;52.152;6.366;2023-02-22T01:00:22;48.88;;;25.17;;
57697;SDS011;43531;52.152;6.366;2023-02-22T01:00:57;38.72;;;22.63;;
57697;SDS011;43531;52.152;6.366;2023-02-22T01:01:29;40.78;;;21.92;;
57697;SDS011;43531;52.152;6.366;2023-02-22T01:02:01;39.05;;;23.60;;
57697;SDS011;43531;52.152;6.366;2023-02-22T01:02:33;50.97;;;25.77;;
57697;SDS011;43531;52.152;6.366;2023-02-22T01:03:05;42.58;;;24.25;;
57697;SDS011;43531;52.152;6.366;2023-02-22T01:03:41;49.70;;;23.55;;
57697;SDS011;43531;52.152;6.366;2023-02-22T01:04:13;53.28;;;25.67;;
57697;SDS011;43531;52.152;6.366;2023-02-22T01:04:45;50.67;;;24.85;;
57697;SDS011;43531;52.152;6.366;2023-02-22T01:05:18;46.47;;;24.60;;
57697;SDS011;43531;52.152;6.366;2023-02-22T01:05:51;47.25;;;22.23;;
57697;SDS011;43531;52.152;6.366;2023-02-22T01:06:23;48.67;;;24.77;;
57697;SDS011;43531;52.152;6.366;2023-02-22T01:06:54;41.20;;;23.23;;
57697;SDS011;43531;52.152;6.366;2023-02-22T01:07:30;49.88;;;25.75;;
57697;SDS011;43531;52.152;6.366;2023-02-22T01:08:02;58.78;;;29.23;;
57697;SDS011;43531;52.152;6.366;2023-02-22T01:08:37;60.55;;;29.50;;
57697;SDS011;43531;52.152;6.366;2023-02-22T01:09:09;58.00;;;28.88;;
57697;SDS011;43531;52.152;6.366;2023-02-22T01:09:40;55.60;;;28.98;;
57697;SDS011;43531;52.152;6.366;2023-02-22T01:10:12;58.03;;;27.08;;
57697;SDS011;43531;52.152;6.366;2023-02-22T01:10:44;55.75;;;29.15;;
57697;SDS011;43531;52.152;6.366;2023-02-22T01:11:17;60.63;;;29.85;;
57697;SDS011;43531;52.152;6.366;2023-02-22T01:11:51;60.30;;;29.83;;
57697;SDS011;43531;52.152;6.366;2023-02-22T01:12:27;59.92;;;29.48;;
57697;SDS011;43531;52.152;6.366;2023-02-22T01:13:00;66.88;;;31.55;;
57697;SDS011;43531;52.152;6.366;2023-02-22T01:13:32;66.18;;;32.47;;
57697;SDS011;43531;52.152;6.366;2023-02-22T01:14:05;59.55;;;32.33;;
57697;SDS011;43531;52.152;6.366;2023-02-22T01:14:39;57.85;;;30.05;;
57697;SDS011;43531;52.152;6.366;2023-02-22T01:15:12;66.10;;;32.55;;
57697;SDS011;43531;52.152;6.366;2023-02-22T01:15:44;71.03;;;33.58;;
57697;SDS011;43531;52.152;6.366;2023-02-22T01:16:16;66.35;;;31.38;;
57697;SDS011;43531;52.152;6.366;2023-02-22T01:16:51;71.50;;;35.47;;
57697;SDS011;43531;52.152;6.366;2023-02-22T01:17:24;65.63;;;33.67;;
57697;SDS011;43531;52.152;6.366;2023-02-22T01:17:56;65.15;;;31.83;;
57697;SDS011;43531;52.152;6.366;2023-02-22T01:18:29;69.47;;;33.85;;
57697;SDS011;43531;52.152;6.366;2023-02-22T01:19:01;66.03;;;31.92;;
57697;SDS011;43531;52.152;6.366;2023-02-22T01:19:33;67.65;;;32.95;;
57697;SDS011;43531;52.152;6.366;2023-02-22T01:20:05;72.47;;;33.42;;
57697;SDS011;43531;52.152;6.366;2023-02-22T01:20:42;75.00;;;36.25;;
57697;SDS011;43531;52.152;6.366;2023-02-22T01:21:18;73.82;;;34.95;;
57697;SDS011;43531;52.152;6.366;2023-02-22T01:21:50;62.22;;;31.10;;
57697;SDS011;43531;52.152;6.366;2023-02-22T01:22:22;73.40;;;33.25;;
57697;SDS011;43531;52.152;6.366;2023-02-22T01:22:55;72.80;;;34.15;;
57697;SDS011;43531;52.152;6.366;2023-02-22T01:23:27;69.20;;;34.55;;
57697;SDS011;43531;52.152;6.366;2023-02-22T01:24:01;73.35;;;33.38;;
57697;SDS011;43531;52.152;6.366;2023-02-22T01:24:32;76.07;;;32.53;;
57697;SDS011;43531;52.152;6.366;2023-02-22T01:25:05;77.00;;;34.13;;
57697;SDS011;43531;52.152;6.366;2023-02-22T01:25:37;71.40;;;34.00;;
57697;SDS011;43531;52.152;6.366;2023-02-22T01:26:09;68.72;;;33.78;;
57697;SDS011;43531;52.152;6.366;2023-02-22T01:26:41;72.28;;;33.25;;
57697;SDS011;43531;52.152;6.366;2023-02-22T01:27:13;67.72;;;32.83;;
57697;SDS011;43531;52.152;6.366;2023-02-22T01:27:45;72.22;;;35.40;;
57697;SDS011;43531;52.152;6.366;2023-02-22T01:28:17;72.97;;;35.50;;
57697;SDS011;43531;52.152;6.366;2023-02-22T01:28:49;80.63;;;37.40;;
57697;SDS011;43531;52.152;6.366;2023-02-22T01:29:21;78.78;;;36.40;;
57697;SDS011;43531;52.152;6.366;2023-02-22T01:29:53;69.22;;;34.75;;
57697;SDS011;43531;52.152;6.366;2023-02-22T01:30:28;67.38;;;33.13;;
57697;SDS011;43531;52.152;6.366;2023-02-22T01:31:01;72.55;;;34.47;;
57697;SDS011;43531;52.152;6.366;2023-02-22T01:31:33;69.72;;;32.03;;
57697;SDS011;43531;52.152;6.366;2023-02-22T01:32:05;70.93;;;35.72;;
57697;SDS011;43531;52.152;6.366;2023-02-22T01:32:38;76.18;;;34.42;;
57697;SDS011;43531;52.152;6.366;2023-02-22T01:33:11;67.97;;;32.88;;
57697;SDS011;43531;52.152;6.366;2023-02-22T01:33:44;70.72;;;34.92;;
57697;SDS011;43531;52.152;6.366;2023-02-22T01:34:17;65.25;;;34.63;;
57697;SDS011;43531;52.152;6.366;2023-02-22T01:34:51;70.47;;;33.15;;
57697;SDS011;43531;52.152;6.366;2023-02-22T01:35:25;68.45;;;33.35;;
57697;SDS011;43531;52.152;6.366;2023-02-22T01:35:59;71.05;;;33.67;;
57697;SDS011;43531;52.152;6.366;2023-02-22T01:36:31;70.72;;;34.40;;
57697;SDS011;43531;52.152;6.366;2023-02-22T01:37:02;67.95;;;32.33;;
57697;SDS011;43531;52.152;6.366;2023-02-22T01:37:38;71.20;;;33.40;;
57697;SDS011;43531;52.152;6.366;2023-02-22T01:38:10;76.38;;;33.35;;
57697;SDS011;43531;52.152;6.366;2023-02-22T01:38:43;69.22;;;35.20;;
57697;SDS011;43531;52.152;6.366;2023-02-22T01:39:15;75.15;;;35.05;;
57697;SDS011;43531;52.152;6.366;2023-02-22T01:39:50;76.75;;;36.72;;
57697;SDS011;43531;52.152;6.366;2023-02-22T01:40:24;74.60;;;34.63;;
57697;SDS011;43531;52.152;6.366;2023-02-22T01:40:59;73.93;;;33.28;;
57697;SDS011;43531;52.152;6.366;2023-02-22T01:41:32;64.88;;;32.63;;
57697;SDS011;43531;52.152;6.366;2023-02-22T01:42:04;68.18;;;32.42;;
57697;SDS011;43531;52.152;6.366;2023-02-22T01:42:36;73.97;;;34.47;;
57697;SDS011;43531;52.152;6.366;2023-02-22T01:43:15;66.97;;;33.33;;
57697;SDS011;43531;52.152;6.366;2023-02-22T01:43:50;70.95;;;35.13;;
57697;SDS011;43531;52.152;6.366;2023-02-22T01:44:26;70.28;;;32.58;;
57697;SDS011;43531;52.152;6.366;2023-02-22T01:46:22;75.07;;;34.85;;
57697;SDS011;43531;52.152;6.366;2023-02-22T01:46:58;77.00;;;34.35;;
57697;SDS011;43531;52.152;6.366;2023-02-22T01:47:31;85.97;;;39.15;;
57697;SDS011;43531;52.152;6.366;2023-02-22T01:48:17;74.15;;;35.58;;
57697;SDS011;43531;52.152;6.366;2023-02-22T01:49:03;78.95;;;35.35;;
57697;SDS011;43531;52.152;6.366;2023-02-22T01:49:41;75.55;;;35.08;;
57697;SDS011;43531;52.152;6.366;2023-02-22T01:50:19;75.50;;;38.25;;
57697;SDS011;43531;52.152;6.366;2023-02-22T01:51:43;75.60;;;36.97;;
57697;SDS011;43531;52.152;6.366;2023-02-22T01:52:17;85.68;;;36.38;;
57697;SDS011;43531;52.152;6.366;2023-02-22T01:52:51;83.75;;;36.88;;
57697;SDS011;43531;52.152;6.366;2023-02-22T01:53:24;76.18;;;36.15;;
57697;SDS011;43531;52.152;6.366;2023-02-22T01:54:05;75.55;;;35.85;;
57697;SDS011;43531;52.152;6.366;2023-02-22T01:54:44;81.38;;;37.70;;
57697;SDS011;43531;52.152;6.366;2023-02-22T01:55:20;82.82;;;35.50;;
57697;SDS011;43531;52.152;6.366;2023-02-22T01:55:52;85.18;;;38.15;;
57697;SDS011;43531;52.152;6.366;2023-02-22T01:56:27;74.13;;;39.33;;
57697;SDS011;43531;52.152;6.366;2023-02-22T01:57:04;83.82;;;39.28;;
57697;SDS011;43531;52.152;6.366;2023-02-22T01:57:39;73.28;;;35.55;;
57697;SDS011;43531;52.152;6.366;2023-02-22T01:58:11;71.75;;;33.70;;
57697;SDS011;43531;52.152;6.366;2023-02-22T01:58:46;81.38;;;36.97;;
57697;SDS011;43531;52.152;6.366;2023-02-22T01:59:21;81.70;;;36.00;;
57697;SDS011;43531;52.152;6.366;2023-02-22T01:59:55;77.25;;;35.42;;
57697;SDS011;43531;52.152;6.366;2023-02-22T02:00:29;77.75;;;35.55;;
57697;SDS011;43531;52.152;6.366;2023-02-22T02:01:01;86.35;;;37.03;;
57697;SDS011;43531;52.152;6.366;2023-02-22T02:01:33;80.20;;;36.47;;
57697;SDS011;43531;52.152;6.366;2023-02-22T02:02:06;86.65;;;36.65;;
57697;SDS011;43531;52.152;6.366;2023-02-22T02:02:37;81.28;;;37.05;;
57697;SDS011;43531;52.152;6.366;2023-02-22T02:03:15;81.70;;;39.67;;
57697;SDS011;43531;52.152;6.366;2023-02-22T02:03:50;89.22;;;38.20;;
57697;SDS011;43531;52.152;6.366;2023-02-22T02:04:28;79.75;;;38.90;;
57697;SDS011;43531;52.152;6.366;2023-02-22T02:05:00;83.10;;;38.35;;
57697;SDS011;43531;52.152;6.366;2023-02-22T02:05:31;86.75;;;39.83;;
57697;SDS011;43531;52.152;6.366;2023-02-22T02:06:05;85.13;;;39.88;;
57697;SDS011;43531;52.152;6.366;2023-02-22T02:06:42;84.07;;;39.38;;
57697;SDS011;43531;52.152;6.366;2023-02-22T02:07:16;94.78;;;39.35;;
57697;SDS011;43531;52.152;6.366;2023-02-22T02:07:49;84.85;;;40.28;;
57697;SDS011;43531;52.152;6.366;2023-02-22T02:09:03;88.10;;;37.65;;
57697;SDS011;43531;52.152;6.366;2023-02-22T02:09:43;85.53;;;37.38;;
57697;SDS011;43531;52.152;6.366;2023-02-22T02:10:18;83.57;;;38.80;;
57697;SDS011;43531;52.152;6.366;2023-02-22T02:10:50;80.97;;;35.85;;
57697;SDS011;43531;52.152;6.366;2023-02-22T02:11:24;94.68;;;40.75;;
57697;SDS011;43531;52.152;6.366;2023-02-22T02:11:57;84.40;;;36.70;;
57697;SDS011;43531;52.152;6.366;2023-02-22T02:12:31;83.57;;;37.75;;
57697;SDS011;43531;52.152;6.366;2023-02-22T02:13:06;87.53;;;35.97;;
57697;SDS011;43531;52.152;6.366;2023-02-22T02:13:37;99.57;;;39.95;;
57697;SDS011;43531;52.152;6.366;2023-02-22T02:14:09;81.75;;;38.25;;
57697;SDS011;43531;52.152;6.366;2023-02-22T02:14:41;88.22;;;39.78;;
57697;SDS011;43531;52.152;6.366;2023-02-22T02:15:48;84.82;;;37.33;;
57697;SDS011;43531;52.152;6.366;2023-02-22T02:16:23;81.13;;;35.35;;
57697;SDS011;43531;52.152;6.366;2023-02-22T02:16:57;97.28;;;36.67;;
57697;SDS011;43531;52.152;6.366;2023-02-22T02:17:33;80.07;;;35.10;;
57697;SDS011;43531;52.152;6.366;2023-02-22T02:18:08;86.28;;;37.30;;
57697;SDS011;43531;52.152;6.366;2023-02-22T02:18:42;84.18;;;38.42;;
57697;SDS011;43531;52.152;6.366;2023-02-22T02:19:21;94.32;;;40.28;;
57697;SDS011;43531;52.152;6.366;2023-02-22T02:27:13;90.03;;;37.00;;
57697;SDS011;43531;52.152;6.366;2023-02-22T02:30:49;78.18;;;34.08;;
57697;SDS011;43531;52.152;6.366;2023-02-22T02:33:37;88.28;;;34.92;;
57697;SDS011;43531;52.152;6.366;2023-02-22T02:34:17;102.68;;;38.15;;
57697;SDS011;43531;52.152;6.366;2023-02-22T02:34:59;88.28;;;34.22;;
57697;SDS011;43531;52.152;6.366;2023-02-22T02:36:15;100.78;;;36.13;;
57697;SDS011;43531;52.152;6.366;2023-02-22T02:36:57;84.93;;;36.13;;
57697;SDS011;43531;52.152;6.366;2023-02-22T02:37:42;83.97;;;34.15;;
57697;SDS011;43531;52.152;6.366;2023-02-22T02:39:25;80.03;;;33.75;;
57697;SDS011;43531;52.152;6.366;2023-02-22T02:39:49;88.90;;;36.15;;
57697;SDS011;43531;52.152;6.366;2023-02-22T02:41:12;96.18;;;37.13;;
57697;SDS011;43531;52.152;6.366;2023-02-22T02:41:48;85.72;;;36.83;;
57697;SDS011;43531;52.152;6.366;2023-02-22T02:42:21;83.28;;;38.78;;
57697;SDS011;43531;52.152;6.366;2023-02-22T02:44:55;86.55;;;35.67;;
57697;SDS011;43531;52.152;6.366;2023-02-22T02:45:38;89.70;;;39.38;;
57697;SDS011;43531;52.152;6.366;2023-02-22T02:46:34;84.95;;;36.88;;
57697;SDS011;43531;52.152;6.366;2023-02-22T02:47:11;85.07;;;37.30;;
57697;SDS011;43531;52.152;6.366;2023-02-22T02:47:46;92.53;;;38.72;;
57697;SDS011;43531;52.152;6.366;2023-02-22T02:48:23;96.35;;;39.05;;
57697;SDS011;43531;52.152;6.366;2023-02-22T02:48:58;96.43;;;40.20;;
57697;SDS011;43531;52.152;6.366;2023-02-22T02:49:34;110.63;;;45.40;;
57697;SDS011;43531;52.152;6.366;2023-02-22T02:50:13;94.07;;;41.53;;
57697;SDS011;43531;52.152;6.366;2023-02-22T02:50:48;98.38;;;40.67;;
57697;SDS011;43531;52.152;6.366;2023-02-22T02:51:21;96.53;;;39.53;;
57697;SDS011;43531;52.152;6.366;2023-02-22T02:51:56;97.63;;;41.50;;
57697;SDS011;43531;52.152;6.366;2023-02-22T02:52:30;105.50;;;40.90;;
57697;SDS011;43531;52.152;6.366;2023-02-22T02:53:04;99.57;;;42.92;;
57697;SDS011;43531;52.152;6.366;2023-02-22T02:53:39;94.07;;;45.28;;
57697;SDS011;43531;52.152;6.366;2023-02-22T02:54:13;90.50;;;43.20;;
57697;SDS011;43531;52.152;6.366;2023-02-22T02:54:47;103.07;;;44.08;;
57697;SDS011;43531;52.152;6.366;2023-02-22T02:55:19;102.63;;;44.65;;
57697;SDS011;43531;52.152;6.366;2023-02-22T02:55:51;94.72;;;44.30;;
57697;SDS011;43531;52.152;6.366;2023-02-22T02:56:26;112.20;;;44.72;;
57697;SDS011;43531;52.152;6.366;2023-02-22T02:56:57;104.28;;;47.67;;
57697;SDS011;43531;52.152;6.366;2023-02-22T02:57:32;106.05;;;43.33;;
57697;SDS011;43531;52.152;6.366;2023-02-22T02:58:04;89.97;;;42.25;;
57697;SDS011;43531;52.152;6.366;2023-02-22T02:58:47;100.88;;;43.40;;
57697;SDS011;43531;52.152;6.366;2023-02-22T02:59:25;94.72;;;43.53;;
57697;SDS011;43531;52.152;6.366;2023-02-22T02:59:57;95.95;;;43.88;;
57697;SDS011;43531;52.152;6.366;2023-02-22T03:00:34;100.50;;;42.58;;
57697;SDS011;43531;52.152;6.366;2023-02-22T03:01:10;112.25;;;47.75;;
57697;SDS011;43531;52.152;6.366;2023-02-22T03:01:56;97.90;;;44.70;;
57697;SDS011;43531;52.152;6.366;2023-02-22T03:08:29;90.30;;;37.97;;
57697;SDS011;43531;52.152;6.366;2023-02-22T03:09:26;94.88;;;39.47;;
57697;SDS011;43531;52.152;6.366;2023-02-22T03:11:53;103.25;;;43.65;;
57697;SDS011;43531;52.152;6.366;2023-02-22T03:13:36;107.50;;;45.78;;
57697;SDS011;43531;52.152;6.366;2023-02-22T03:14:18;96.03;;;42.55;;
57697;SDS011;43531;52.152;6.366;2023-02-22T03:16:14;96.72;;;44.53;;
57697;SDS011;43531;52.152;6.366;2023-02-22T03:17:15;98.20;;;44.70;;
57697;SDS011;43531;52.152;6.366;2023-02-22T03:19:08;101.20;;;43.50;;
57697;SDS011;43531;52.152;6.366;2023-02-22T03:19:49;109.35;;;43.78;;
57697;SDS011;43531;52.152;6.366;2023-02-22T03:20:28;104.10;;;43.95;;
57697;SDS011;43531;52.152;6.366;2023-02-22T03:21:54;103.07;;;43.97;;
57697;SDS011;43531;52.152;6.366;2023-02-22T03:22:35;104.60;;;45.60;;
57697;SDS011;43531;52.152;6.366;2023-02-22T03:23:19;95.97;;;44.97;;
57697;SDS011;43531;52.152;6.366;2023-02-22T03:24:19;98.18;;;41.40;;
57697;SDS011;43531;52.152;6.366;2023-02-22T03:24:55;102.00;;;41.13;;
57697;SDS011;43531;52.152;6.366;2023-02-22T03:25:33;102.18;;;42.85;;
57697;SDS011;43531;52.152;6.366;2023-02-22T03:26:08;113.70;;;44.10;;
57697;SDS011;43531;52.152;6.366;2023-02-22T03:27:01;94.60;;;41.83;;
57697;SDS011;43531;52.152;6.366;2023-02-22T03:27:51;111.35;;;46.22;;
57697;SDS011;43531;52.152;6.366;2023-02-22T03:28:25;94.97;;;41.70;;
57697;SDS011;43531;52.152;6.366;2023-02-22T03:28:58;101.07;;;42.97;;
57697;SDS011;43531;52.152;6.366;2023-02-22T03:29:37;99.93;;;43.53;;
57697;SDS011;43531;52.152;6.366;2023-02-22T03:30:33;100.40;;;43.22;;
57697;SDS011;43531;52.152;6.366;2023-02-22T03:31:12;97.47;;;40.97;;
57697;SDS011;43531;52.152;6.366;2023-02-22T03:31:50;98.55;;;42.40;;
57697;SDS011;43531;52.152;6.366;2023-02-22T03:32:29;96.75;;;41.42;;
57697;SDS011;43531;52.152;6.366;2023-02-22T03:33:08;102.05;;;44.33;;
57697;SDS011;43531;52.152;6.366;2023-02-22T03:34:04;89.57;;;42.25;;
57697;SDS011;43531;52.152;6.366;2023-02-22T03:34:42;94.25;;;42.72;;
57697;SDS011;43531;52.152;6.366;2023-02-22T03:35:22;92.63;;;42.45;;
57697;SDS011;43531;52.152;6.366;2023-02-22T03:35:58;110.85;;;44.65;;
57697;SDS011;43531;52.152;6.366;2023-02-22T03:36:34;107.15;;;43.53;;
57697;SDS011;43531;52.152;6.366;2023-02-22T03:37:13;94.05;;;42.40;;
57697;SDS011;43531;52.152;6.366;2023-02-22T03:37:50;101.20;;;46.38;;
57697;SDS011;43531;52.152;6.366;2023-02-22T03:38:25;94.85;;;40.42;;
57697;SDS011;43531;52.152;6.366;2023-02-22T03:39:04;102.20;;;40.22;;
57697;SDS011;43531;52.152;6.366;2023-02-22T03:39:38;111.63;;;45.60;;
57697;SDS011;43531;52.152;6.366;2023-02-22T03:40:14;113.65;;;44.92;;
57697;SDS011;43531;52.152;6.366;2023-02-22T03:40:51;106.70;;;41.90;;
57697;SDS011;43531;52.152;6.366;2023-02-22T03:41:25;95.18;;;38.58;;
57697;SDS011;43531;52.152;6.366;2023-02-22T03:42:00;104.72;;;43.30;;
57697;SDS011;43531;52.152;6.366;2023-02-22T03:42:35;98.78;;;44.88;;
57697;SDS011;43531;52.152;6.366;2023-02-22T03:43:12;97.55;;;43.13;;
57697;SDS011;43531;52.152;6.366;2023-02-22T03:43:48;93.07;;;42.03;;
57697;SDS011;43531;52.152;6.366;2023-02-22T03:44:23;97.72;;;41.00;;
57697;SDS011;43531;52.152;6.366;2023-02-22T03:44:58;93.88;;;40.58;;
57697;SDS011;43531;52.152;6.366;2023-02-22T03:45:31;94.82;;;41.90;;
57697;SDS011;43531;52.152;6.366;2023-02-22T03:46:05;95.82;;;42.30;;
57697;SDS011;43531;52.152;6.366;2023-02-22T03:46:37;91.93;;;42.75;;
57697;SDS011;43531;52.152;6.366;2023-02-22T03:47:11;92.78;;;42.33;;
57697;SDS011;43531;52.152;6.366;2023-02-22T03:47:47;89.15;;;41.35;;
57697;SDS011;43531;52.152;6.366;2023-02-22T03:48:35;96.97;;;41.80;;
57697;SDS011;43531;52.152;6.366;2023-02-22T03:49:41;86.25;;;38.97;;
57697;SDS011;43531;52.152;6.366;2023-02-22T03:50:17;88.47;;;38.25;;
57697;SDS011;43531;52.152;6.366;2023-02-22T03:50:52;88.05;;;41.25;;
57697;SDS011;43531;52.152;6.366;2023-02-22T03:51:24;101.80;;;44.05;;
57697;SDS011;43531;52.152;6.366;2023-02-22T03:52:02;99.38;;;42.38;;
57697;SDS011;43531;52.152;6.366;2023-02-22T03:52:35;99.45;;;40.22;;
57697;SDS011;43531;52.152;6.366;2023-02-22T03:53:12;102.47;;;42.83;;
57697;SDS011;43531;52.152;6.366;2023-02-22T03:53:45;100.30;;;41.33;;
57697;SDS011;43531;52.152;6.366;2023-02-22T03:54:22;109.20;;;44.80;;
57697;SDS011;43531;52.152;6.366;2023-02-22T03:54:53;104.20;;;42.78;;
57697;SDS011;43531;52.152;6.366;2023-02-22T03:55:25;98.80;;;47.28;;
57697;SDS011;43531;52.152;6.366;2023-02-22T03:55:59;104.95;;;42.90;;
57697;SDS011;43531;52.152;6.366;2023-02-22T03:56:37;87.38;;;42.05;;